Mount Vernon, IL

2:39 AM CDT on August 01, 2014 (GMT -0500)
Mount Vernon (KMVN) Elev 479 ft | 38.32 °N, 88.86 °W | Change Station

Current weather conditions updated 4 minutes ago

Clear
Clear
59 °F
Feels Like 59 °F
N
0
Wind Variable Wind from North

Today is forecast to be nearly the same temperature as yesterday.

Today
High -- | Low -- °F
--% Chance of Precip.
Yesterday
High -- | Low -- °F
Precip. -- in
5:57 AM 8:05 PM
Waxing Crescent, 24% visible
Pressure 30.08 in
Visibility 2.0 miles
Clouds Clear
Dew Point 55 °F
Humidity 88%
Rainfall 0.00 in
Snow Depth Not available.
UV 0 out of 12
Pollen 6.20 out of 12
Air Quality Not available.
Flu Activity Not available.
METAR KMVN 010735Z AUTO 00000KT 2SM CLR 15/13 A3008 RMK AO1

More Conditions Fewer Conditions

Pressure 30.08 in
Visibility 2.0 miles
Clouds Clear
Dew Point 55 °F
Humidity 88%
Rainfall 0.00 in
Snow Depth Not available.
UV 0 out of 12
Pollen 6.20 out of 12
Air Quality Not available.
Flu Activity Not available.
METAR KMVN 010735Z AUTO 00000KT 2SM CLR 15/13 A3008 RMK AO1

More Conditions Fewer Conditions

10-Day Weather Forecast

Almanac

Astronomy

Aug. 01, 2014 Rise Set
Actual Time 5:57 AM CDT 8:05 PM CDT
Civil Twilight 5:28 AM CDT 8:34 PM CDT
Nautical Twilight 4:52 AM CDT 9:10 PM CDT
Astronomical Twilight 4:13 AM CDT 9:49 PM CDT
Moon 11:16 AM CDT 10:55 PM CDT
Length of Visible Light 15h 06m
Length of Day
14h 07m
Tomorrow will be 1m 52s shorter.
Waxing Crescent, 24% of the Moon is Illuminated
Today
Waxing Crescent
Aug 3
First Quarter
Aug 10
Full
Aug 17
Last Quarter
Aug 25
New

Today's Extremes

State Highs State Lows

Community

WunderPhotos

Upload Photos

1,739,522 photos uploaded!

Nearby

Snow Depth

Station Depth Elevation
No new snow has been reported.

Earthquake Activity

City Distance Mag. Time & Date
No recent earthquake activity has been reported nearby.
Minimum magnitude displayed is 2.5.

Coastal Water Temperatures

Place Temperature
No Stations Reporting

Nearby Weather Stations

Station Location Temp. Dew Point Humidity Wind Precip. Elev Updated Type
MesoWest BAKRVL , Bonnie, IL 66 °F - - North  at  - 0.00 in / hr 421 ft 11:55 PM CDT MADIS
DuBois, IL 63.4 °F 62 °F 95% SSW  at  0.0 mph 0.00 in / hr 524 ft 2:39 AM CDT Rapid Fire
MesoWest CABOOL , Benton, IL 64 °F - - North  at  - 0.00 in / hr 458 ft 12:10 AM CDT MADIS
Holiday Terrace, Centralia, IL 65.6 °F 62 °F 87% SSE  at  0.0 mph 0.00 in / hr 534 ft 2:36 AM CDT Rapid Fire
Red Stripe Rd, Salem, IL 59.7 °F 58 °F 94% SSW  at  0.0 mph - / hr 528 ft 2:24 AM CDT Normal
Northeast of Benton, Benton, IL 61.0 °F 60 °F 95% ESE  at  0.0 mph 0.00 in / hr 433 ft 2:30 AM CDT Normal
Middleton Street Weather, Iuka, IL 60.6 °F 48 °F 63% North  at  0.0 mph 0.00 in / hr 518 ft 2:39 AM CDT Rapid Fire
Buckner, IL 63.8 °F 61 °F 91% SSE  at  0.0 mph 0.00 in / hr 410 ft 2:39 AM CDT Rapid Fire
Christopher, IL Hwy 148, Christopher, IL 63.9 °F 61 °F 90% ENE  at  0.0 mph - / hr 436 ft 2:35 AM CDT Normal

Show More Stations Show Fewer Stations